Time;durP1;ratioP1;P1;durP2;ratioP2;P2;SDS_P1;SDS_P2;PMS_P1;PMS_P2;Temp;Humidity;BMP_temperature;BMP_pressure;BME280_temperature;BME280_humidity;BME280_pressure;Samples;Min_cycle;Max_cycle;Signal;HPM_P1;HPM_P2
2023/10/31 00:01:16;;;;;;;1.70;0.80;;;16.20;75.30;;;;;;2206446;57;21623;-71
2023/10/31 00:03:55;;;;;;;1.17;0.47;;;16.20;75.20;;;;;;2416435;56;21012;-70
2023/10/31 00:06:21;;;;;;;1.77;0.68;;;16.20;75.20;;;;;;2425761;57;20942;-70
2023/10/31 00:08:48;;;;;;;2.25;0.68;;;16.10;75.00;;;;;;2425875;57;21514;-69
2023/10/31 00:11:15;;;;;;;1.75;0.70;;;16.10;75.00;;;;;;2426721;57;20970;-69
2023/10/31 00:13:44;;;;;;;2.97;0.60;;;16.20;75.10;;;;;;2211514;57;21326;-70
2023/10/31 00:16:11;;;;;;;2.03;0.57;;;16.10;75.00;;;;;;2426558;57;21049;-69
2023/10/31 00:18:38;;;;;;;1.45;0.65;;;16.10;74.90;;;;;;2426557;56;21403;-70
2023/10/31 00:21:08;;;;;;;1.02;0.50;;;16.10;75.00;;;;;;2426121;57;20934;-69
2023/10/31 00:23:48;;;;;;;1.50;0.57;;;16.10;74.90;;;;;;2426156;57;21780;-70
2023/10/31 00:26:15;;;;;;;1.12;0.50;;;16.10;74.80;;;;;;2414742;55;21440;-71
2023/10/31 00:28:42;;;;;;;1.75;0.62;;;16.10;74.90;;;;;;2414134;56;21059;-70
2023/10/31 00:31:14;;;;;;;1.10;0.40;;;16.10;74.90;;;;;;2413673;56;20968;-70
2023/10/31 00:33:45;;;;;;;1.23;0.50;;;16.00;74.80;;;;;;2208087;57;20989;-70
2023/10/31 00:36:11;;;;;;;1.17;0.50;;;16.00;74.90;;;;;;2208818;58;21490;-69
2023/10/31 00:38:38;;;;;;;2.25;0.60;;;16.00;74.90;;;;;;2208411;58;21049;-71
2023/10/31 00:41:14;;;;;;;1.65;0.60;;;16.00;74.90;;;;;;2419016;56;21039;-71
2023/10/31 00:43:47;;;;;;;3.17;0.55;;;15.90;74.70;;;;;;2411656;56;21047;-70
2023/10/31 00:46:22;;;;;;;1.42;0.60;;;16.00;74.90;;;;;;2416139;56;20989;-71
2023/10/31 00:48:58;;;;;;;1.62;0.50;;;15.90;74.90;;;;;;2207621;57;20947;-71
2023/10/31 00:51:30;;;;;;;1.00;0.50;;;16.00;75.10;;;;;;2208385;58;20990;-69
2023/10/31 00:53:57;;;;;;;1.65;0.70;;;15.90;74.90;;;;;;2426187;56;21073;-70
2023/10/31 00:56:24;;;;;;;1.30;0.43;;;15.90;75.00;;;;;;2415532;56;20958;-71
2023/10/31 00:58:54;;;;;;;4.47;0.60;;;15.90;75.00;;;;;;2208220;57;20977;-69
2023/10/31 01:01:24;;;;;;;1.10;0.60;;;15.90;75.00;;;;;;2208918;57;20958;-69
2023/10/31 01:03:56;;;;;;;1.87;0.60;;;15.90;75.00;;;;;;2415998;56;20982;-69
2023/10/31 01:06:22;;;;;;;1.52;0.60;;;15.90;75.00;;;;;;2422745;56;20978;-71
2023/10/31 01:08:55;;;;;;;2.45;0.60;;;15.90;75.10;;;;;;2202128;57;20935;-69
2023/10/31 01:11:21;;;;;;;2.30;0.70;;;15.90;75.20;;;;;;2425627;56;20970;-69
2023/10/31 01:13:48;;;;;;;1.40;0.60;;;15.90;75.10;;;;;;2208361;58;21050;-71
2023/10/31 01:16:17;;;;;;;1.50;0.60;;;15.90;75.10;;;;;;2205778;57;20990;-70
2023/10/31 01:18:47;;;;;;;1.58;0.60;;;15.90;75.00;;;;;;2424588;56;21078;-71
2023/10/31 01:21:14;;;;;;;1.73;0.60;;;15.90;74.80;;;;;;2424487;56;20970;-69
2023/10/31 01:23:40;;;;;;;1.15;0.50;;;15.80;74.70;;;;;;2413306;56;20998;-70
2023/10/31 01:26:07;;;;;;;1.80;0.60;;;15.80;74.80;;;;;;2420574;56;21074;-70
2023/10/31 01:28:36;;;;;;;1.85;0.60;;;15.80;74.80;;;;;;2200073;57;21042;-69
2023/10/31 01:31:08;;;;;;;1.50;0.62;;;15.80;75.00;;;;;;2203636;57;20940;-69
2023/10/31 01:33:36;;;;;;;2.92;0.60;;;15.80;74.90;;;;;;2414227;56;20961;-69
2023/10/31 01:36:03;;;;;;;2.05;0.60;;;15.80;74.80;;;;;;2422577;57;21035;-70
2023/10/31 01:38:32;;;;;;;1.60;0.60;;;15.80;74.90;;;;;;2201386;57;21030;-70
2023/10/31 01:40:59;;;;;;;1.12;0.60;;;15.80;74.90;;;;;;2422326;56;21015;-70
2023/10/31 01:43:37;;;;;;;1.73;0.50;;;15.80;75.00;;;;;;2208248;57;1506916;-71
2023/10/31 01:49:07;;;;;;;0.80;0.40;;;15.80;74.80;;;;;;2425583;57;21811;-69
2023/10/31 01:51:36;;;;;;;1.02;0.40;;;15.80;75.00;;;;;;2425325;56;20978;-71
2023/10/31 01:54:04;;;;;;;1.50;0.50;;;15.80;75.00;;;;;;2423194;57;20998;-69
2023/10/31 01:56:33;;;;;;;1.65;0.43;;;15.70;74.90;;;;;;2203817;57;21002;-71
2023/10/31 01:59:03;;;;;;;1.00;0.40;;;15.70;74.90;;;;;;2210128;58;21070;-70
2023/10/31 02:01:29;;;;;;;1.62;0.40;;;15.70;74.90;;;;;;2201601;57;21032;-70
2023/10/31 02:03:56;;;;;;;1.70;0.47;;;15.70;74.90;;;;;;2208416;58;20986;-69
2023/10/31 02:06:26;;;;;;;1.87;0.50;;;15.70;74.90;;;;;;2421107;56;21506;-69
2023/10/31 02:09:01;;;;;;;1.12;0.50;;;15.70;74.80;;;;;;2414677;56;21028;-72
2023/10/31 02:11:51;;;;;;;1.40;0.55;;;15.80;74.90;;;;;;2203193;57;20954;-71
2023/10/31 02:14:30;;;;;;;1.35;0.57;;;15.70;74.30;;;;;;2208773;59;21009;-70
2023/10/31 02:16:57;;;;;;;1.58;0.50;;;15.70;74.50;;;;;;2425603;56;21089;-69
2023/10/31 02:19:25;;;;;;;1.00;0.45;;;15.70;74.70;;;;;;2426038;57;21855;-70
2023/10/31 02:22:00;;;;;;;1.62;0.57;;;15.70;74.80;;;;;;2425795;57;22032;-70
2023/10/31 02:24:30;;;;;;;1.50;0.40;;;15.70;74.70;;;;;;2426345;56;20958;-69
2023/10/31 02:26:57;;;;;;;1.55;0.60;;;15.70;74.60;;;;;;2425491;57;21070;-69
2023/10/31 02:29:25;;;;;;;0.95;0.50;;;15.60;74.70;;;;;;2424827;56;21009;-70
2023/10/31 02:31:56;;;;;;;1.17;0.60;;;15.70;74.80;;;;;;2426237;57;21034;-68
2023/10/31 02:34:26;;;;;;;1.02;0.50;;;15.70;74.70;;;;;;2425751;56;21148;-71
2023/10/31 02:37:02;;;;;;;1.60;0.70;;;15.60;74.70;;;;;;2422647;56;20990;-69
2023/10/31 02:39:42;;;;;;;0.93;0.32;;;15.60;74.70;;;;;;2420447;56;21518;-73
2023/10/31 02:42:15;;;;;;;1.42;0.50;;;15.60;74.40;;;;;;2211672;57;20978;-71
2023/10/31 02:44:42;;;;;;;1.00;0.50;;;15.60;74.50;;;;;;2425828;57;20962;-69
2023/10/31 02:47:09;;;;;;;1.17;0.40;;;15.60;74.60;;;;;;2207976;57;20974;-70
2023/10/31 02:49:39;;;;;;;1.67;0.50;;;15.70;74.60;;;;;;2415805;56;20963;-69
2023/10/31 02:52:13;;;;;;;1.83;0.57;;;15.50;74.30;;;;;;2426059;57;20978;-67
2023/10/31 02:54:40;;;;;;;2.58;0.50;;;15.50;74.40;;;;;;2426110;57;20958;-70
2023/10/31 02:57:07;;;;;;;2.10;0.60;;;15.50;74.50;;;;;;2425073;57;21602;-68
2023/10/31 02:59:36;;;;;;;1.35;0.40;;;15.50;74.50;;;;;;2214709;58;21452;-70
2023/10/31 03:02:02;;;;;;;1.15;0.40;;;15.50;74.50;;;;;;2208452;58;20990;-68
2023/10/31 03:04:30;;;;;;;1.05;0.40;;;15.50;74.60;;;;;;2417519;56;20958;-69
2023/10/31 03:06:57;;;;;;;1.48;0.45;;;15.50;74.70;;;;;;2419805;56;21083;-69
2023/10/31 03:09:26;;;;;;;0.68;0.40;;;15.50;74.70;;;;;;2413824;56;21024;-70
2023/10/31 03:12:01;;;;;;;1.27;0.40;;;15.40;74.50;;;;;;2414789;56;21386;-69
2023/10/31 03:14:33;;;;;;;0.98;0.40;;;15.40;75.30;;;;;;2201369;57;21173;-70
2023/10/31 03:17:11;;;;;;;1.20;0.62;;;15.50;74.50;;;;;;2425459;56;21050;-69
2023/10/31 03:19:37;;;;;;;3.10;0.52;;;15.40;74.60;;;;;;2421983;56;21022;-71
2023/10/31 03:22:06;;;;;;;3.45;0.50;;;15.40;74.60;;;;;;2208181;59;20983;-69
2023/10/31 03:24:35;;;;;;;0.85;0.28;;;15.40;74.60;;;;;;2202097;57;20979;-71
2023/10/31 03:27:02;;;;;;;1.45;0.57;;;15.40;74.70;;;;;;2392007;57;21345;-68
2023/10/31 03:29:31;;;;;;;1.10;0.40;;;15.30;74.60;;;;;;2426552;57;20962;-69
2023/10/31 03:32:05;;;;;;;2.20;0.62;;;15.40;74.70;;;;;;2426301;56;21013;-69
2023/10/31 03:34:33;;;;;;;1.67;0.65;;;15.40;74.80;;;;;;2415203;56;21429;-70
2023/10/31 03:36:59;;;;;;;2.00;0.52;;;15.40;74.70;;;;;;2203829;57;20993;-68
2023/10/31 03:39:30;;;;;;;1.20;0.40;;;15.40;74.70;;;;;;2422579;56;21037;-69
2023/10/31 03:41:56;;;;;;;1.62;0.50;;;15.30;74.60;;;;;;2208264;57;20990;-69
2023/10/31 03:44:22;;;;;;;1.95;0.57;;;15.30;74.70;;;;;;2208360;58;21097;-70
2023/10/31 03:46:49;;;;;;;1.55;0.50;;;15.40;74.90;;;;;;2414030;56;20982;-71
2023/10/31 03:49:16;;;;;;;1.10;0.40;;;15.30;74.70;;;;;;2413764;56;21108;-70
2023/10/31 03:51:44;;;;;;;1.23;0.50;;;15.30;75.00;;;;;;2210360;59;21554;-69
2023/10/31 03:54:13;;;;;;;1.48;0.43;;;15.30;74.70;;;;;;2212085;58;21073;-69
2023/10/31 03:56:45;;;;;;;1.25;0.47;;;15.30;74.70;;;;;;2200779;57;20956;-69
2023/10/31 03:59:12;;;;;;;1.20;0.45;;;15.30;74.70;;;;;;2421972;56;20950;-68
2023/10/31 04:01:39;;;;;;;1.20;0.45;;;15.30;74.70;;;;;;2425925;56;20973;-69
2023/10/31 04:04:05;;;;;;;1.75;0.40;;;15.30;74.70;;;;;;2203287;57;20962;-70
2023/10/31 04:06:32;;;;;;;1.77;0.50;;;15.30;74.80;;;;;;2205197;57;20950;-70
2023/10/31 04:08:58;;;;;;;0.88;0.35;;;15.10;74.60;;;;;;2425188;56;21379;-67
2023/10/31 04:11:32;;;;;;;1.92;0.50;;;15.30;74.70;;;;;;2425743;57;21049;-69
2023/10/31 04:14:03;;;;;;;0.70;0.30;;;15.30;74.60;;;;;;2413498;56;21970;-69
2023/10/31 04:16:46;;;;;;;0.90;0.30;;;15.30;74.70;;;;;;2413308;56;21024;-69
2023/10/31 04:19:13;;;;;;;1.55;0.57;;;15.30;74.50;;;;;;2413627;56;21564;-69
2023/10/31 04:21:44;;;;;;;2.33;0.50;;;15.30;74.70;;;;;;2413283;56;21017;-70
2023/10/31 04:24:11;;;;;;;1.17;0.32;;;15.20;74.50;;;;;;2205648;57;21018;-70
2023/10/31 04:26:45;;;;;;;1.90;0.40;;;15.30;74.60;;;;;;2418652;56;20941;-70
2023/10/31 04:29:25;;;;;;;0.90;0.22;;;15.20;74.40;;;;;;2208531;58;21046;-69
2023/10/31 04:31:55;;;;;;;1.17;0.32;;;15.30;74.70;;;;;;2211198;58;21458;-69
2023/10/31 04:34:23;;;;;;;1.00;0.40;;;15.20;74.50;;;;;;2202799;57;21048;-70
2023/10/31 04:36:52;;;;;;;1.40;0.40;;;15.20;74.60;;;;;;2425009;56;21068;-70
2023/10/31 04:39:22;;;;;;;0.52;0.30;;;15.20;74.60;;;;;;2206154;57;21079;-69
2023/10/31 04:41:50;;;;;;;1.12;0.30;;;15.20;74.60;;;;;;2206977;57;21072;-70
2023/10/31 04:44:17;;;;;;;0.85;0.30;;;15.20;74.60;;;;;;2202058;57;21429;-69
2023/10/31 04:46:50;;;;;;;2.25;0.57;;;15.20;74.60;;;;;;2416413;56;21553;-71
2023/10/31 04:49:20;;;;;;;1.10;0.40;;;15.30;74.60;;;;;;2203485;57;21022;-68
2023/10/31 04:51:46;;;;;;;1.50;0.45;;;15.10;74.40;;;;;;2426140;56;20985;-71
2023/10/31 04:54:16;;;;;;;1.45;0.30;;;15.10;74.30;;;;;;2423566;56;20999;-69
2023/10/31 04:56:44;;;;;;;1.65;0.40;;;15.20;74.30;;;;;;2418471;56;20994;-70
2023/10/31 04:59:11;;;;;;;1.20;0.50;;;15.10;74.30;;;;;;2208909;57;20996;-71
2023/10/31 05:01:41;;;;;;;0.52;0.30;;;15.10;74.20;;;;;;2418548;56;21006;-72
2023/10/31 05:04:07;;;;;;;1.08;0.40;;;15.10;74.20;;;;;;2425550;57;22415;-69
2023/10/31 05:06:36;;;;;;;2.80;0.50;;;15.10;74.10;;;;;;2209084;58;22037;-71
2023/10/31 05:09:24;;;;;;;1.10;0.40;;;15.00;73.90;;;;;;2416445;55;20998;-69
2023/10/31 05:11:57;;;;;;;3.58;0.30;;;15.10;74.10;;;;;;2413301;56;21011;-70
2023/10/31 05:14:30;;;;;;;1.37;0.32;;;15.00;74.00;;;;;;2426107;56;20954;-70
2023/10/31 05:16:59;;;;;;;3.65;1.20;;;15.00;74.00;;;;;;2418818;56;20978;-70
2023/10/31 05:19:30;;;;;;;2.37;0.50;;;15.00;73.80;;;;;;2419961;56;20970;-69
2023/10/31 05:21:57;;;;;;;1.77;0.40;;;15.00;73.80;;;;;;2201254;57;21806;-69
2023/10/31 05:24:26;;;;;;;1.75;0.40;;;15.00;73.80;;;;;;2425515;56;20989;-71
2023/10/31 05:26:53;;;;;;;2.67;0.60;;;14.90;73.80;;;;;;2208590;58;21078;-69
2023/10/31 05:29:20;;;;;;;1.92;0.50;;;14.90;73.80;;;;;;2414334;56;20980;-70
2023/10/31 05:31:47;;;;;;;1.62;0.47;;;14.90;73.90;;;;;;2424461;56;21018;-70
2023/10/31 05:34:14;;;;;;;2.35;0.45;;;15.00;74.20;;;;;;2425596;57;21478;-70
2023/10/31 05:36:40;;;;;;;1.35;0.40;;;14.90;74.20;;;;;;2425493;57;20997;-70
2023/10/31 05:39:08;;;;;;;1.37;0.50;;;14.90;74.20;;;;;;2426082;57;20962;-71
2023/10/31 05:41:37;;;;;;;1.30;0.50;;;14.90;74.20;;;;;;2203564;57;21833;-71
2023/10/31 05:44:05;;;;;;;1.17;0.40;;;14.90;74.30;;;;;;2425210;57;20982;-72
2023/10/31 05:46:40;;;;;;;1.75;0.52;;;14.90;74.30;;;;;;2425630;57;20994;-70
2023/10/31 05:49:07;;;;;;;3.03;0.65;;;14.90;74.20;;;;;;2423781;56;21042;-72
2023/10/31 05:51:35;;;;;;;0.75;0.35;;;14.80;74.30;;;;;;2208566;59;20950;-72
2023/10/31 05:54:01;;;;;;;1.08;0.40;;;14.80;74.30;;;;;;2425366;57;21315;-70
2023/10/31 05:56:28;;;;;;;1.85;0.50;;;14.80;74.30;;;;;;2418051;57;20942;-71
2023/10/31 05:58:54;;;;;;;1.05;0.50;;;14.80;74.30;;;;;;2201570;57;21010;-70
2023/10/31 06:01:21;;;;;;;2.58;0.68;;;14.70;74.20;;;;;;2207628;58;21082;-72
2023/10/31 06:03:48;;;;;;;1.75;0.50;;;14.80;74.30;;;;;;2423414;56;21064;-71
2023/10/31 06:06:14;;;;;;;3.85;0.70;;;14.80;74.30;;;;;;2204702;57;20962;-70
2023/10/31 06:08:45;;;;;;;1.40;0.50;;;14.80;74.20;;;;;;2206090;58;20965;-70
2023/10/31 06:11:15;;;;;;;2.70;0.50;;;14.80;74.20;;;;;;2208985;57;20971;-70
2023/10/31 06:13:50;;;;;;;1.70;0.43;;;14.80;74.20;;;;;;2425823;57;20998;-70
2023/10/31 06:16:17;;;;;;;2.78;0.50;;;14.80;74.00;;;;;;2207012;57;21678;-70
2023/10/31 06:18:43;;;;;;;2.10;0.50;;;14.70;74.10;;;;;;2420910;56;21361;-71
2023/10/31 06:21:10;;;;;;;1.87;0.60;;;14.80;74.20;;;;;;2208351;58;21478;-69
2023/10/31 06:23:38;;;;;;;3.00;0.70;;;14.80;74.20;;;;;;2208906;58;20998;-71
2023/10/31 06:26:08;;;;;;;4.28;0.52;;;14.80;74.20;;;;;;2208188;58;20974;-71
2023/10/31 06:28:37;;;;;;;2.97;0.75;;;14.70;74.10;;;;;;2208357;58;21835;-70
2023/10/31 06:31:04;;;;;;;1.42;0.52;;;14.80;74.30;;;;;;2211015;58;20969;-67
2023/10/31 06:33:32;;;;;;;2.70;0.60;;;14.70;74.30;;;;;;2426158;57;21017;-70
2023/10/31 06:36:09;;;;;;;1.08;0.40;;;14.70;74.30;;;;;;2208409;58;20946;-69
2023/10/31 06:38:47;;;;;;;0.80;0.40;;;14.70;74.20;;;;;;2413078;56;20963;-71
2023/10/31 06:41:24;;;;;;;1.42;0.50;;;14.70;74.30;;;;;;2204303;57;20970;-70
2023/10/31 06:43:51;;;;;;;1.67;0.50;;;14.70;74.40;;;;;;2205504;57;20969;-71
2023/10/31 06:46:23;;;;;;;3.42;0.60;;;14.70;74.40;;;;;;2425830;56;21045;-70
2023/10/31 06:48:51;;;;;;;1.80;0.60;;;14.80;74.40;;;;;;2424190;57;20974;-69
2023/10/31 06:51:24;;;;;;;2.12;0.60;;;14.70;74.40;;;;;;2204790;57;21002;-72
2023/10/31 06:54:05;;;;;;;2.05;0.60;;;14.70;74.40;;;;;;2202819;57;20999;-69
2023/10/31 06:56:44;;;;;;;3.75;0.55;;;14.70;74.30;;;;;;2426536;56;20970;-70
2023/10/31 06:59:25;;;;;;;3.90;0.43;;;14.70;74.30;;;;;;2208940;58;21065;-69
2023/10/31 07:01:55;;;;;;;3.20;0.60;;;14.70;74.30;;;;;;2208712;59;20962;-70
2023/10/31 07:04:22;;;;;;;3.12;0.68;;;14.70;74.30;;;;;;2209115;57;20982;-70
2023/10/31 07:06:49;;;;;;;2.72;0.62;;;14.70;74.40;;;;;;2426296;56;20982;-71
2023/10/31 07:09:20;;;;;;;3.03;0.55;;;14.70;74.50;;;;;;2424136;56;21001;-71
2023/10/31 07:11:46;;;;;;;4.25;0.70;;;14.70;74.40;;;;;;2421435;56;20954;-70
2023/10/31 07:14:13;;;;;;;2.80;0.57;;;14.70;74.50;;;;;;2424733;56;21542;-70
2023/10/31 07:16:40;;;;;;;4.50;0.57;;;14.70;74.50;;;;;;2418253;56;21046;-72
2023/10/31 07:19:08;;;;;;;1.80;0.50;;;14.70;74.50;;;;;;2201774;57;21057;-69
2023/10/31 07:21:37;;;;;;;1.67;0.50;;;14.70;74.50;;;;;;2426211;57;21010;-69
2023/10/31 07:24:04;;;;;;;1.95;0.60;;;14.70;74.50;;;;;;2425992;57;20942;-69
2023/10/31 07:26:32;;;;;;;2.62;0.50;;;14.80;74.60;;;;;;2425722;57;21000;-69
2023/10/31 07:28:59;;;;;;;1.35;0.50;;;14.70;74.50;;;;;;2209164;58;20974;-69
2023/10/31 07:31:25;;;;;;;2.12;0.60;;;14.70;74.60;;;;;;2200934;57;20995;-69
2023/10/31 07:33:56;;;;;;;2.12;0.60;;;14.70;74.60;;;;;;2205618;57;21128;-69
2023/10/31 07:36:22;;;;;;;5.55;0.62;;;14.70;74.60;;;;;;2207940;58;20974;-69
2023/10/31 07:38:49;;;;;;;1.83;0.50;;;14.70;75.40;;;;;;2425476;56;21458;-69
2023/10/31 07:41:21;;;;;;;3.47;0.52;;;14.70;74.60;;;;;;2419632;56;20995;-69
2023/10/31 07:43:50;;;;;;;6.00;1.20;;;14.70;74.60;;;;;;2201235;57;21041;-70
2023/10/31 07:46:16;;;;;;;3.20;1.35;;;14.70;74.60;;;;;;2201706;57;20980;-70
2023/10/31 07:48:43;;;;;;;4.57;1.48;;;14.70;74.60;;;;;;2425412;57;21014;-71
2023/10/31 07:51:11;;;;;;;5.57;2.87;;;14.70;74.70;;;;;;2425924;56;21014;-69
2023/10/31 07:53:41;;;;;;;8.45;4.30;;;14.70;74.60;;;;;;2425603;57;20958;-70
2023/10/31 07:56:18;;;;;;;23.30;9.63;;;14.80;74.70;;;;;;2207855;59;20958;-69
2023/10/31 07:58:47;;;;;;;22.42;11.90;;;14.70;74.50;;;;;;2208874;59;20942;-69
2023/10/31 08:01:14;;;;;;;21.90;11.60;;;14.80;74.80;;;;;;2417941;56;21504;-69
2023/10/31 08:03:43;;;;;;;17.77;9.77;;;14.80;74.80;;;;;;2201117;57;21032;-70
2023/10/31 08:06:14;;;;;;;13.88;7.07;;;14.80;74.90;;;;;;2177473;58;21042;-70
2023/10/31 08:08:42;;;;;;;8.38;4.37;;;14.80;74.80;;;;;;2423079;56;21302;-69
2023/10/31 08:11:11;;;;;;;7.53;3.30;;;14.80;74.70;;;;;;2211316;57;21054;-71
2023/10/31 08:13:38;;;;;;;4.87;1.80;;;14.70;74.70;;;;;;2417903;56;21430;-70
2023/10/31 08:16:08;;;;;;;5.87;1.40;;;14.80;74.70;;;;;;2205673;57;21825;-70
2023/10/31 08:18:35;;;;;;;2.80;1.12;;;14.90;74.70;;;;;;2425106;56;21018;-68
2023/10/31 08:21:03;;;;;;;5.15;1.00;;;14.90;74.80;;;;;;2208555;58;20954;-70
2023/10/31 08:23:29;;;;;;;2.60;1.20;;;14.90;74.80;;;;;;2208195;58;20981;-68
2023/10/31 08:25:56;;;;;;;3.47;0.95;;;14.90;74.80;;;;;;2207869;57;21088;-70
2023/10/31 08:28:22;;;;;;;4.82;1.25;;;14.90;74.80;;;;;;2424035;56;21007;-70
2023/10/31 08:30:50;;;;;;;4.22;0.90;;;14.90;74.70;;;;;;2414114;56;21038;-69
2023/10/31 08:33:19;;;;;;;1.98;0.55;;;14.90;74.70;;;;;;2411599;56;21024;-68
2023/10/31 08:35:50;;;;;;;3.20;0.80;;;14.90;74.70;;;;;;2423828;56;20950;-69
2023/10/31 08:38:17;;;;;;;2.47;0.70;;;14.90;75.60;;;;;;2415517;56;20983;-69
2023/10/31 08:40:48;;;;;;;2.15;0.68;;;14.90;74.90;;;;;;2425699;57;20950;-68
2023/10/31 08:43:16;;;;;;;2.70;0.80;;;15.00;75.00;;;;;;2208566;58;20982;-68
2023/10/31 08:45:45;;;;;;;4.25;2.05;;;15.00;75.00;;;;;;2211731;57;21805;-70
2023/10/31 08:48:12;;;;;;;3.72;1.83;;;15.00;75.00;;;;;;2204404;57;21006;-69
2023/10/31 08:50:39;;;;;;;3.33;1.48;;;15.00;75.00;;;;;;2205468;57;20978;-69
2023/10/31 08:53:06;;;;;;;3.75;1.25;;;15.00;75.00;;;;;;2426069;57;21497;-68
2023/10/31 08:55:32;;;;;;;3.03;1.10;;;15.10;75.10;;;;;;2420866;56;21014;-69
2023/10/31 08:57:59;;;;;;;3.30;1.15;;;15.10;75.10;;;;;;2202418;57;21960;-70
2023/10/31 09:00:28;;;;;;;2.33;0.82;;;15.10;75.10;;;;;;2424794;57;21919;-69
2023/10/31 09:02:54;;;;;;;3.58;0.80;;;15.10;75.10;;;;;;2426012;57;21025;-70
2023/10/31 09:05:22;;;;;;;2.53;1.00;;;15.10;75.00;;;;;;2425226;57;21469;-70
2023/10/31 09:07:49;;;;;;;2.70;0.70;;;15.20;75.10;;;;;;2426451;57;21013;-69
2023/10/31 09:10:15;;;;;;;2.53;1.10;;;15.20;75.10;;;;;;2208468;58;21018;-70
2023/10/31 09:12:42;;;;;;;2.40;1.02;;;15.20;75.10;;;;;;2425227;56;21509;-68
2023/10/31 09:15:10;;;;;;;3.35;1.20;;;15.20;75.10;;;;;;2208362;57;21021;-69
2023/10/31 09:17:39;;;;;;;1.85;0.95;;;15.20;75.20;;;;;;2208868;58;21069;-73
2023/10/31 09:20:08;;;;;;;4.15;1.45;;;15.20;75.10;;;;;;2208696;57;21203;-71
2023/10/31 09:22:35;;;;;;;3.22;1.00;;;15.20;75.10;;;;;;2207652;57;21057;-67
2023/10/31 09:25:05;;;;;;;2.53;1.02;;;15.30;75.20;;;;;;2418690;56;20966;-67
2023/10/31 09:27:31;;;;;;;2.80;1.10;;;15.30;75.10;;;;;;2425423;56;21574;-70
2023/10/31 09:29:59;;;;;;;2.42;1.00;;;15.30;75.30;;;;;;2205504;57;21844;-70
2023/10/31 09:32:26;;;;;;;2.37;0.80;;;15.30;75.40;;;;;;2203902;57;20989;-67
2023/10/31 09:34:54;;;;;;;3.58;0.62;;;15.30;75.40;;;;;;2425885;56;21023;-70
2023/10/31 09:37:21;;;;;;;2.47;1.02;;;15.40;75.50;;;;;;2425729;56;20994;-69
2023/10/31 09:39:48;;;;;;;1.10;0.55;;;15.40;75.60;;;;;;2424172;56;20975;-69
2023/10/31 09:42:15;;;;;;;2.72;0.70;;;15.50;75.70;;;;;;2207400;58;20986;-69
2023/10/31 09:44:43;;;;;;;1.60;0.70;;;15.50;75.80;;;;;;2424341;57;20930;-69
2023/10/31 09:47:10;;;;;;;2.53;0.62;;;15.50;75.80;;;;;;2208057;58;21033;-69
2023/10/31 09:49:40;;;;;;;1.45;0.52;;;15.60;76.00;;;;;;2426132;57;20989;-69
2023/10/31 09:52:07;;;;;;;1.27;0.50;;;15.60;76.00;;;;;;2207815;58;22116;-70
2023/10/31 09:54:34;;;;;;;2.45;0.60;;;15.60;76.00;;;;;;2207090;57;20990;-66
2023/10/31 09:57:00;;;;;;;1.42;0.30;;;15.70;76.00;;;;;;2426052;57;21294;-69
2023/10/31 09:59:27;;;;;;;0.40;0.30;;;15.70;75.90;;;;;;2424279;57;20963;-71
2023/10/31 10:01:56;;;;;;;1.80;0.65;;;15.80;76.10;;;;;;2207699;59;21050;-74
2023/10/31 10:04:22;;;;;;;1.30;0.50;;;15.80;76.00;;;;;;2202676;57;20978;-68
2023/10/31 10:06:57;;;;;;;2.00;0.50;;;15.90;76.70;;;;;;2425060;57;21042;-68
2023/10/31 10:09:24;;;;;;;2.72;0.50;;;15.90;75.60;;;;;;2425358;57;21103;-68
2023/10/31 10:11:52;;;;;;;1.73;0.50;;;15.90;75.50;;;;;;2426209;55;20957;-70
2023/10/31 10:14:19;;;;;;;2.00;0.82;;;16.00;75.50;;;;;;2425942;57;21076;-70
2023/10/31 10:16:45;;;;;;;1.45;0.43;;;16.00;75.40;;;;;;2425964;57;21042;-70
2023/10/31 10:19:19;;;;;;;1.83;0.50;;;16.00;75.40;;;;;;2210801;58;20970;-70
2023/10/31 10:21:56;;;;;;;2.47;0.60;;;16.00;75.20;;;;;;2201655;57;20982;-69
2023/10/31 10:24:25;;;;;;;1.25;0.47;;;16.10;75.10;;;;;;2185710;58;20978;-69
2023/10/31 10:26:51;;;;;;;1.67;0.50;;;16.10;75.40;;;;;;2420641;56;21014;-70
2023/10/31 10:29:18;;;;;;;2.90;0.50;;;16.10;75.30;;;;;;2202018;57;20944;-69
2023/10/31 10:31:50;;;;;;;1.55;0.47;;;16.10;75.30;;;;;;2416173;56;21042;-68
2023/10/31 10:34:16;;;;;;;1.52;0.50;;;16.20;75.40;;;;;;2424419;56;21551;-70
2023/10/31 10:36:46;;;;;;;1.25;0.52;;;16.30;75.30;;;;;;2425317;56;20977;-69
2023/10/31 10:39:13;;;;;;;2.00;0.50;;;16.20;75.10;;;;;;2208975;57;20954;-71
2023/10/31 10:41:40;;;;;;;1.42;0.50;;;16.20;75.10;;;;;;2420187;56;20999;-68
2023/10/31 10:44:07;;;;;;;1.98;0.57;;;16.30;75.10;;;;;;2202076;57;21034;-67
2023/10/31 10:46:34;;;;;;;2.03;0.50;;;16.20;75.00;;;;;;2425575;57;21035;-70
2023/10/31 10:49:06;;;;;;;2.28;0.80;;;16.30;75.20;;;;;;2419834;56;21757;-67
2023/10/31 10:53:09;;;;;;;2.62;0.52;;;16.30;75.20;;;;;;2204353;57;20985;-67
2023/10/31 10:55:39;;;;;;;1.58;0.40;;;16.30;74.50;;;;;;2208182;57;21436;-66
2023/10/31 10:58:08;;;;;;;2.95;0.70;;;16.40;75.40;;;;;;2425510;57;20970;-68
2023/10/31 11:00:35;;;;;;;1.87;0.60;;;16.40;75.50;;;;;;2208464;57;20999;-66
2023/10/31 11:03:02;;;;;;;2.62;0.68;;;16.40;75.50;;;;;;2208403;59;21042;-67
2023/10/31 11:05:28;;;;;;;2.92;0.82;;;16.40;75.50;;;;;;2425345;57;20993;-66
2023/10/31 11:07:55;;;;;;;3.17;0.70;;;16.50;75.60;;;;;;2425986;57;20998;-69
2023/10/31 11:10:22;;;;;;;3.08;0.85;;;16.50;75.60;;;;;;2425371;57;20946;-69
2023/10/31 11:12:48;;;;;;;3.42;0.62;;;16.50;75.60;;;;;;2426038;57;21023;-66
2023/10/31 11:15:15;;;;;;;2.67;0.80;;;16.60;75.70;;;;;;2208770;57;20966;-66
2023/10/31 11:17:43;;;;;;;2.95;0.52;;;16.60;75.60;;;;;;2208066;57;20954;-68
2023/10/31 11:20:10;;;;;;;1.92;0.62;;;16.70;75.50;;;;;;2425089;57;21030;-70
2023/10/31 11:22:44;;;;;;;3.10;0.50;;;16.60;75.40;;;;;;2208879;57;20954;-71
2023/10/31 11:25:14;;;;;;;2.22;0.60;;;16.60;75.40;;;;;;2208766;59;20950;-68
2023/10/31 11:27:42;;;;;;;2.03;0.70;;;16.70;75.40;;;;;;2426213;57;20997;-64
2023/10/31 11:30:19;;;;;;;2.58;0.50;;;16.70;75.10;;;;;;2208358;58;20966;-68
2023/10/31 11:32:52;;;;;;;1.95;0.55;;;16.70;75.10;;;;;;2208229;59;20942;-72
2023/10/31 11:35:20;;;;;;;1.75;0.70;;;16.70;74.80;;;;;;2423278;56;21060;-71
2023/10/31 11:38:01;;;;;;;1.48;0.70;;;16.80;74.90;;;;;;2416887;56;20958;-74
2023/10/31 11:40:27;;;;;;;1.92;0.52;;;16.90;74.90;;;;;;2208452;57;20954;-69
2023/10/31 11:42:57;;;;;;;1.65;0.57;;;16.80;74.90;;;;;;2425826;57;21115;-67
2023/10/31 11:45:44;;;;;;;2.00;0.57;;;16.80;74.80;;;;;;2203688;57;21054;-71
2023/10/31 11:48:11;;;;;;;3.17;0.60;;;16.80;74.20;;;;;;2207936;58;21119;-75
2023/10/31 11:50:37;;;;;;;1.62;0.60;;;16.80;74.90;;;;;;2418026;56;21098;-68
2023/10/31 11:53:09;;;;;;;3.28;0.68;;;16.80;74.90;;;;;;2208622;58;21019;-68
2023/10/31 11:55:38;;;;;;;3.12;0.60;;;16.80;75.00;;;;;;2425055;57;20990;-69
2023/10/31 11:58:26;;;;;;;1.50;0.50;;;16.80;74.90;;;;;;2425550;57;21487;-67
2023/10/31 12:01:00;;;;;;;2.47;0.60;;;16.80;74.50;;;;;;2425328;56;21046;-68
2023/10/31 12:03:27;;;;;;;3.03;0.50;;;16.80;75.00;;;;;;2207517;59;20970;-66
2023/10/31 12:05:57;;;;;;;1.12;0.50;;;16.80;75.10;;;;;;2210280;57;20957;-69
2023/10/31 12:08:39;;;;;;;1.77;0.62;;;16.80;75.10;;;;;;2417111;56;20958;-72
2023/10/31 12:11:19;;;;;;;1.23;0.50;;;16.90;75.00;;;;;;2423352;56;21023;-70
2023/10/31 12:14:01;;;;;;;2.03;0.60;;;16.90;74.90;;;;;;2413787;56;20996;-70
2023/10/31 12:16:33;;;;;;;2.42;0.45;;;16.90;74.80;;;;;;2205709;57;21038;-70
2023/10/31 12:19:01;;;;;;;1.65;0.40;;;16.90;74.90;;;;;;2425543;56;20945;-71
2023/10/31 12:21:46;;;;;;;1.15;0.50;;;16.90;75.10;;;;;;2414883;56;21010;-71
2023/10/31 12:24:14;;;;;;;1.60;0.60;;;17.00;74.60;;;;;;2415474;56;20980;-71
2023/10/31 12:26:44;;;;;;;2.95;0.60;;;17.00;75.30;;;;;;2202632;57;21034;-69
2023/10/31 12:29:18;;;;;;;1.42;0.60;;;17.00;75.50;;;;;;2425845;57;21478;-70
2023/10/31 12:31:48;;;;;;;2.62;0.50;;;17.10;75.20;;;;;;2208017;59;20998;-71
2023/10/31 12:34:15;;;;;;;1.02;0.50;;;17.10;75.40;;;;;;2208062;59;20989;-69
2023/10/31 12:36:41;;;;;;;1.67;0.60;;;17.10;75.40;;;;;;2206193;57;20942;-68
2023/10/31 12:39:10;;;;;;;1.70;0.62;;;17.10;75.20;;;;;;2208757;59;20946;-69
2023/10/31 12:41:38;;;;;;;2.00;0.60;;;17.20;75.20;;;;;;2207509;58;21094;-68
2023/10/31 12:44:04;;;;;;;2.80;0.70;;;17.20;75.30;;;;;;2208843;58;20978;-69
2023/10/31 12:46:31;;;;;;;3.05;0.85;;;17.20;75.10;;;;;;2207966;58;21028;-68
2023/10/31 12:48:58;;;;;;;3.20;0.98;;;17.20;75.00;;;;;;2207722;57;21034;-69
2023/10/31 12:51:25;;;;;;;2.50;0.90;;;17.30;75.20;;;;;;2425033;57;20985;-69
2023/10/31 12:53:55;;;;;;;2.55;0.77;;;17.30;75.20;;;;;;2208249;57;20961;-68
2023/10/31 12:56:41;;;;;;;2.40;0.80;;;17.30;75.00;;;;;;2206302;57;21077;-73
2023/10/31 12:59:10;;;;;;;1.20;0.50;;;17.30;74.20;;;;;;2206190;58;20981;-68
2023/10/31 13:01:47;;;;;;;1.80;0.60;;;17.40;75.00;;;;;;2426023;56;21065;-69